sensor_id;sensor_type;location;lat;lon;timestamp;P1;durP1;ratioP1;P2;durP2;ratioP2
73733;SDS011;62039;50.000;9.064;2023-11-21T00:02:24;1.87;;;1.17;;
73733;SDS011;62039;50.000;9.064;2023-11-21T00:04:52;2.10;;;1.40;;
73733;SDS011;62039;50.000;9.064;2023-11-21T00:07:21;1.77;;;1.57;;
73733;SDS011;62039;50.000;9.064;2023-11-21T00:09:48;2.37;;;1.37;;
73733;SDS011;62039;50.000;9.064;2023-11-21T00:12:15;2.13;;;1.20;;
73733;SDS011;62039;50.000;9.064;2023-11-21T00:14:42;1.83;;;1.10;;
73733;SDS011;62039;50.000;9.064;2023-11-21T00:17:09;1.30;;;1.20;;
73733;SDS011;62039;50.000;9.064;2023-11-21T00:19:36;3.17;;;1.40;;
73733;SDS011;62039;50.000;9.064;2023-11-21T00:22:03;1.60;;;1.20;;
73733;SDS011;62039;50.000;9.064;2023-11-21T00:24:32;1.17;;;1.03;;
73733;SDS011;62039;50.000;9.064;2023-11-21T00:26:59;2.23;;;1.13;;
73733;SDS011;62039;50.000;9.064;2023-11-21T00:29:26;2.33;;;1.40;;
73733;SDS011;62039;50.000;9.064;2023-11-21T00:31:54;1.60;;;1.20;;
73733;SDS011;62039;50.000;9.064;2023-11-21T00:34:21;1.70;;;1.20;;
73733;SDS011;62039;50.000;9.064;2023-11-21T00:36:48;1.47;;;0.90;;
73733;SDS011;62039;50.000;9.064;2023-11-21T00:39:15;2.50;;;1.40;;
73733;SDS011;62039;50.000;9.064;2023-11-21T00:41:44;2.13;;;1.00;;
73733;SDS011;62039;50.000;9.064;2023-11-21T00:44:11;2.40;;;1.23;;
73733;SDS011;62039;50.000;9.064;2023-11-21T00:46:38;2.17;;;1.07;;
73733;SDS011;62039;50.000;9.064;2023-11-21T00:49:05;1.93;;;1.23;;
73733;SDS011;62039;50.000;9.064;2023-11-21T00:51:32;1.93;;;1.37;;
73733;SDS011;62039;50.000;9.064;2023-11-21T00:53:59;1.30;;;1.00;;
73733;SDS011;62039;50.000;9.064;2023-11-21T00:56:26;1.73;;;1.20;;
73733;SDS011;62039;50.000;9.064;2023-11-21T00:58:56;1.23;;;0.93;;
73733;SDS011;62039;50.000;9.064;2023-11-21T01:01:22;2.20;;;1.30;;
73733;SDS011;62039;50.000;9.064;2023-11-21T01:03:49;1.80;;;1.00;;
73733;SDS011;62039;50.000;9.064;2023-11-21T01:06:17;2.27;;;1.13;;
73733;SDS011;62039;50.000;9.064;2023-11-21T01:08:44;1.67;;;1.00;;
73733;SDS011;62039;50.000;9.064;2023-11-21T01:11:11;1.33;;;1.03;;
73733;SDS011;62039;50.000;9.064;2023-11-21T01:13:38;1.07;;;0.80;;
73733;SDS011;62039;50.000;9.064;2023-11-21T01:16:08;1.10;;;1.00;;
73733;SDS011;62039;50.000;9.064;2023-11-21T01:18:36;1.47;;;0.97;;
73733;SDS011;62039;50.000;9.064;2023-11-21T01:21:03;2.13;;;1.00;;
73733;SDS011;62039;50.000;9.064;2023-11-21T01:23:30;0.80;;;0.80;;
73733;SDS011;62039;50.000;9.064;2023-11-21T01:25:57;1.47;;;0.93;;
73733;SDS011;62039;50.000;9.064;2023-11-21T01:28:24;3.00;;;1.00;;
73733;SDS011;62039;50.000;9.064;2023-11-21T01:30:51;2.37;;;1.00;;
73733;SDS011;62039;50.000;9.064;2023-11-21T01:33:21;2.13;;;0.70;;
73733;SDS011;62039;50.000;9.064;2023-11-21T01:35:48;1.47;;;0.90;;
73733;SDS011;62039;50.000;9.064;2023-11-21T01:38:15;2.00;;;0.77;;
73733;SDS011;62039;50.000;9.064;2023-11-21T01:40:41;1.33;;;1.07;;
73733;SDS011;62039;50.000;9.064;2023-11-21T01:43:08;2.90;;;0.80;;
73733;SDS011;62039;50.000;9.064;2023-11-21T01:45:35;1.67;;;1.00;;
73733;SDS011;62039;50.000;9.064;2023-11-21T01:48:02;1.00;;;0.77;;
73733;SDS011;62039;50.000;9.064;2023-11-21T01:50:33;1.63;;;0.93;;
73733;SDS011;62039;50.000;9.064;2023-11-21T01:53:00;2.20;;;1.00;;
73733;SDS011;62039;50.000;9.064;2023-11-21T01:55:27;1.87;;;0.87;;
73733;SDS011;62039;50.000;9.064;2023-11-21T01:57:55;0.83;;;0.80;;
73733;SDS011;62039;50.000;9.064;2023-11-21T02:00:23;1.70;;;1.10;;
73733;SDS011;62039;50.000;9.064;2023-11-21T02:02:50;1.33;;;0.97;;
73733;SDS011;62039;50.000;9.064;2023-11-21T02:05:17;1.23;;;0.93;;
73733;SDS011;62039;50.000;9.064;2023-11-21T02:07:48;1.03;;;0.90;;
73733;SDS011;62039;50.000;9.064;2023-11-21T02:10:15;0.90;;;0.80;;
73733;SDS011;62039;50.000;9.064;2023-11-21T02:12:42;4.30;;;1.10;;
73733;SDS011;62039;50.000;9.064;2023-11-21T02:15:10;1.30;;;0.80;;
73733;SDS011;62039;50.000;9.064;2023-11-21T02:17:39;2.77;;;1.10;;
73733;SDS011;62039;50.000;9.064;2023-11-21T02:20:07;1.67;;;0.80;;
73733;SDS011;62039;50.000;9.064;2023-11-21T02:22:35;4.10;;;1.10;;
73733;SDS011;62039;50.000;9.064;2023-11-21T02:25:08;1.57;;;1.00;;
73733;SDS011;62039;50.000;9.064;2023-11-21T02:27:35;1.33;;;0.80;;
73733;SDS011;62039;50.000;9.064;2023-11-21T02:30:02;1.50;;;1.20;;
73733;SDS011;62039;50.000;9.064;2023-11-21T02:32:29;1.13;;;0.90;;
73733;SDS011;62039;50.000;9.064;2023-11-21T02:34:56;0.90;;;0.80;;
73733;SDS011;62039;50.000;9.064;2023-11-21T02:37:23;1.30;;;0.87;;
73733;SDS011;62039;50.000;9.064;2023-11-21T02:39:50;1.67;;;1.00;;
73733;SDS011;62039;50.000;9.064;2023-11-21T02:42:20;1.53;;;1.00;;
73733;SDS011;62039;50.000;9.064;2023-11-21T02:44:47;1.97;;;0.93;;
73733;SDS011;62039;50.000;9.064;2023-11-21T02:47:14;1.00;;;0.90;;
73733;SDS011;62039;50.000;9.064;2023-11-21T02:49:41;1.37;;;0.90;;
73733;SDS011;62039;50.000;9.064;2023-11-21T02:52:08;1.70;;;1.07;;
73733;SDS011;62039;50.000;9.064;2023-11-21T02:54:34;1.27;;;0.97;;
73733;SDS011;62039;50.000;9.064;2023-11-21T02:57:01;1.03;;;0.90;;
73733;SDS011;62039;50.000;9.064;2023-11-21T02:59:31;1.83;;;0.83;;
73733;SDS011;62039;50.000;9.064;2023-11-21T03:01:58;1.33;;;1.07;;
73733;SDS011;62039;50.000;9.064;2023-11-21T03:04:25;2.30;;;0.90;;
73733;SDS011;62039;50.000;9.064;2023-11-21T03:06:52;1.40;;;1.00;;
73733;SDS011;62039;50.000;9.064;2023-11-21T03:09:19;2.67;;;1.10;;
73733;SDS011;62039;50.000;9.064;2023-11-21T03:11:45;1.80;;;0.90;;
73733;SDS011;62039;50.000;9.064;2023-11-21T03:14:12;1.53;;;0.90;;
73733;SDS011;62039;50.000;9.064;2023-11-21T03:16:42;1.43;;;0.80;;
73733;SDS011;62039;50.000;9.064;2023-11-21T03:19:09;1.20;;;0.93;;
73733;SDS011;62039;50.000;9.064;2023-11-21T03:21:36;1.37;;;1.00;;
73733;SDS011;62039;50.000;9.064;2023-11-21T03:24:03;1.00;;;0.90;;
73733;SDS011;62039;50.000;9.064;2023-11-21T03:26:31;2.40;;;0.90;;
73733;SDS011;62039;50.000;9.064;2023-11-21T03:28:57;1.03;;;0.80;;
73733;SDS011;62039;50.000;9.064;2023-11-21T03:31:24;2.53;;;0.90;;
73733;SDS011;62039;50.000;9.064;2023-11-21T03:33:54;1.20;;;0.83;;
73733;SDS011;62039;50.000;9.064;2023-11-21T03:36:21;1.50;;;1.00;;
73733;SDS011;62039;50.000;9.064;2023-11-21T03:38:48;2.23;;;1.10;;
73733;SDS011;62039;50.000;9.064;2023-11-21T03:41:15;1.03;;;0.70;;
73733;SDS011;62039;50.000;9.064;2023-11-21T03:43:42;1.17;;;0.70;;
73733;SDS011;62039;50.000;9.064;2023-11-21T03:46:09;1.80;;;1.00;;
73733;SDS011;62039;50.000;9.064;2023-11-21T03:48:36;1.00;;;0.80;;
73733;SDS011;62039;50.000;9.064;2023-11-21T03:51:05;2.20;;;1.00;;
73733;SDS011;62039;50.000;9.064;2023-11-21T03:53:32;1.13;;;0.83;;
73733;SDS011;62039;50.000;9.064;2023-11-21T03:55:59;1.00;;;0.80;;
73733;SDS011;62039;50.000;9.064;2023-11-21T03:58:28;1.37;;;0.77;;
73733;SDS011;62039;50.000;9.064;2023-11-21T04:00:55;0.97;;;0.87;;
73733;SDS011;62039;50.000;9.064;2023-11-21T04:03:22;1.40;;;0.90;;
73733;SDS011;62039;50.000;9.064;2023-11-21T04:05:49;0.97;;;0.80;;
73733;SDS011;62039;50.000;9.064;2023-11-21T04:08:19;1.90;;;1.17;;
73733;SDS011;62039;50.000;9.064;2023-11-21T04:10:46;1.93;;;0.87;;
73733;SDS011;62039;50.000;9.064;2023-11-21T04:13:13;0.63;;;0.63;;
73733;SDS011;62039;50.000;9.064;2023-11-21T04:15:40;1.10;;;0.90;;
73733;SDS011;62039;50.000;9.064;2023-11-21T04:18:06;0.90;;;0.70;;
73733;SDS011;62039;50.000;9.064;2023-11-21T04:20:33;1.50;;;0.80;;
73733;SDS011;62039;50.000;9.064;2023-11-21T04:23:00;0.70;;;0.70;;
73733;SDS011;62039;50.000;9.064;2023-11-21T04:25:30;2.13;;;0.90;;
73733;SDS011;62039;50.000;9.064;2023-11-21T04:27:57;1.07;;;0.87;;
73733;SDS011;62039;50.000;9.064;2023-11-21T04:30:23;1.03;;;0.80;;
73733;SDS011;62039;50.000;9.064;2023-11-21T04:32:50;0.70;;;0.70;;
73733;SDS011;62039;50.000;9.064;2023-11-21T04:35:17;1.00;;;0.80;;
73733;SDS011;62039;50.000;9.064;2023-11-21T04:37:44;1.17;;;0.87;;
73733;SDS011;62039;50.000;9.064;2023-11-21T04:40:11;1.10;;;1.00;;
73733;SDS011;62039;50.000;9.064;2023-11-21T04:42:41;1.50;;;0.90;;
73733;SDS011;62039;50.000;9.064;2023-11-21T04:45:08;2.13;;;0.90;;
73733;SDS011;62039;50.000;9.064;2023-11-21T04:47:36;1.20;;;0.80;;
73733;SDS011;62039;50.000;9.064;2023-11-21T04:50:03;1.20;;;1.03;;
73733;SDS011;62039;50.000;9.064;2023-11-21T04:52:31;1.00;;;0.83;;
73733;SDS011;62039;50.000;9.064;2023-11-21T04:54:58;2.43;;;0.83;;
73733;SDS011;62039;50.000;9.064;2023-11-21T04:57:25;1.43;;;1.07;;
73733;SDS011;62039;50.000;9.064;2023-11-21T04:59:54;2.13;;;1.03;;
73733;SDS011;62039;50.000;9.064;2023-11-21T05:02:21;1.30;;;0.73;;
73733;SDS011;62039;50.000;9.064;2023-11-21T05:05:01;1.10;;;0.97;;
73733;SDS011;62039;50.000;9.064;2023-11-21T05:07:28;1.70;;;0.90;;
73733;SDS011;62039;50.000;9.064;2023-11-21T05:09:57;0.90;;;0.90;;
73733;SDS011;62039;50.000;9.064;2023-11-21T05:12:24;1.03;;;0.80;;
73733;SDS011;62039;50.000;9.064;2023-11-21T05:14:51;1.57;;;1.00;;
73733;SDS011;62039;50.000;9.064;2023-11-21T05:17:21;1.93;;;1.00;;
73733;SDS011;62039;50.000;9.064;2023-11-21T05:19:48;1.43;;;0.90;;
73733;SDS011;62039;50.000;9.064;2023-11-21T05:22:15;1.93;;;0.93;;
73733;SDS011;62039;50.000;9.064;2023-11-21T05:24:43;0.83;;;0.80;;
73733;SDS011;62039;50.000;9.064;2023-11-21T05:27:10;1.20;;;1.10;;
73733;SDS011;62039;50.000;9.064;2023-11-21T05:29:36;2.37;;;1.27;;
73733;SDS011;62039;50.000;9.064;2023-11-21T05:32:04;2.67;;;0.90;;
73733;SDS011;62039;50.000;9.064;2023-11-21T05:34:34;2.73;;;0.90;;
73733;SDS011;62039;50.000;9.064;2023-11-21T05:37:01;1.10;;;0.80;;
73733;SDS011;62039;50.000;9.064;2023-11-21T05:39:28;1.20;;;0.87;;
73733;SDS011;62039;50.000;9.064;2023-11-21T05:41:55;1.60;;;1.03;;
73733;SDS011;62039;50.000;9.064;2023-11-21T05:44:21;1.63;;;1.33;;
73733;SDS011;62039;50.000;9.064;2023-11-21T05:46:48;1.70;;;1.50;;
73733;SDS011;62039;50.000;9.064;2023-11-21T05:49:15;2.03;;;1.57;;
73733;SDS011;62039;50.000;9.064;2023-11-21T05:51:45;1.70;;;1.20;;
73733;SDS011;62039;50.000;9.064;2023-11-21T05:54:12;1.70;;;1.20;;
73733;SDS011;62039;50.000;9.064;2023-11-21T05:56:39;1.47;;;1.37;;
73733;SDS011;62039;50.000;9.064;2023-11-21T05:59:06;2.27;;;1.70;;
73733;SDS011;62039;50.000;9.064;2023-11-21T06:01:33;1.83;;;1.50;;
73733;SDS011;62039;50.000;9.064;2023-11-21T06:03:59;2.13;;;1.60;;
73733;SDS011;62039;50.000;9.064;2023-11-21T06:06:26;1.50;;;1.40;;
73733;SDS011;62039;50.000;9.064;2023-11-21T06:08:56;2.33;;;1.50;;
73733;SDS011;62039;50.000;9.064;2023-11-21T06:11:23;1.93;;;1.30;;
73733;SDS011;62039;50.000;9.064;2023-11-21T06:13:50;2.73;;;1.77;;
73733;SDS011;62039;50.000;9.064;2023-11-21T06:16:17;2.67;;;1.90;;
73733;SDS011;62039;50.000;9.064;2023-11-21T06:18:44;4.73;;;2.77;;
73733;SDS011;62039;50.000;9.064;2023-11-21T06:21:12;3.30;;;2.33;;
73733;SDS011;62039;50.000;9.064;2023-11-21T06:23:39;2.90;;;2.10;;
73733;SDS011;62039;50.000;9.064;2023-11-21T06:26:08;2.80;;;1.83;;
73733;SDS011;62039;50.000;9.064;2023-11-21T06:28:35;2.33;;;2.10;;
73733;SDS011;62039;50.000;9.064;2023-11-21T06:31:02;2.30;;;1.93;;
73733;SDS011;62039;50.000;9.064;2023-11-21T06:33:29;2.10;;;1.73;;
73733;SDS011;62039;50.000;9.064;2023-11-21T06:35:56;2.00;;;1.53;;
73733;SDS011;62039;50.000;9.064;2023-11-21T06:38:23;2.27;;;1.70;;
73733;SDS011;62039;50.000;9.064;2023-11-21T06:40:50;2.13;;;1.93;;
73733;SDS011;62039;50.000;9.064;2023-11-21T06:43:20;2.20;;;2.00;;
73733;SDS011;62039;50.000;9.064;2023-11-21T06:45:47;3.33;;;2.40;;
73733;SDS011;62039;50.000;9.064;2023-11-21T06:48:14;2.50;;;2.10;;
73733;SDS011;62039;50.000;9.064;2023-11-21T06:50:41;2.67;;;2.37;;
73733;SDS011;62039;50.000;9.064;2023-11-21T06:53:07;3.70;;;2.60;;
73733;SDS011;62039;50.000;9.064;2023-11-21T06:55:34;2.77;;;2.30;;
73733;SDS011;62039;50.000;9.064;2023-11-21T06:58:01;3.37;;;2.40;;
73733;SDS011;62039;50.000;9.064;2023-11-21T07:00:31;3.27;;;2.33;;
73733;SDS011;62039;50.000;9.064;2023-11-21T07:02:58;2.53;;;2.10;;
73733;SDS011;62039;50.000;9.064;2023-11-21T07:05:25;3.30;;;2.10;;
73733;SDS011;62039;50.000;9.064;2023-11-21T07:07:52;3.33;;;2.20;;
73733;SDS011;62039;50.000;9.064;2023-11-21T07:10:19;3.50;;;2.40;;
73733;SDS011;62039;50.000;9.064;2023-11-21T07:12:46;3.80;;;2.80;;
73733;SDS011;62039;50.000;9.064;2023-11-21T07:15:13;3.40;;;2.63;;
73733;SDS011;62039;50.000;9.064;2023-11-21T07:17:42;2.43;;;2.23;;
73733;SDS011;62039;50.000;9.064;2023-11-21T07:20:10;5.17;;;2.30;;
73733;SDS011;62039;50.000;9.064;2023-11-21T07:22:38;2.87;;;2.67;;
73733;SDS011;62039;50.000;9.064;2023-11-21T07:25:05;3.37;;;2.87;;
73733;SDS011;62039;50.000;9.064;2023-11-21T07:27:32;2.73;;;2.53;;
73733;SDS011;62039;50.000;9.064;2023-11-21T07:29:59;3.17;;;2.50;;
73733;SDS011;62039;50.000;9.064;2023-11-21T07:32:26;2.97;;;2.70;;
73733;SDS011;62039;50.000;9.064;2023-11-21T07:34:56;3.07;;;2.20;;
73733;SDS011;62039;50.000;9.064;2023-11-21T07:37:23;3.90;;;2.40;;
73733;SDS011;62039;50.000;9.064;2023-11-21T07:39:50;2.60;;;2.20;;
73733;SDS011;62039;50.000;9.064;2023-11-21T07:42:16;3.70;;;2.80;;
73733;SDS011;62039;50.000;9.064;2023-11-21T07:44:43;2.40;;;2.20;;
73733;SDS011;62039;50.000;9.064;2023-11-21T07:47:10;5.80;;;2.80;;
73733;SDS011;62039;50.000;9.064;2023-11-21T07:49:37;3.70;;;3.07;;
73733;SDS011;62039;50.000;9.064;2023-11-21T07:52:07;4.37;;;3.33;;
73733;SDS011;62039;50.000;9.064;2023-11-21T07:54:34;4.17;;;3.10;;
73733;SDS011;62039;50.000;9.064;2023-11-21T07:57:01;3.10;;;2.70;;
73733;SDS011;62039;50.000;9.064;2023-11-21T07:59:28;3.20;;;2.60;;
73733;SDS011;62039;50.000;9.064;2023-11-21T08:01:55;2.60;;;2.40;;
73733;SDS011;62039;50.000;9.064;2023-11-21T08:04:21;3.10;;;2.80;;
73733;SDS011;62039;50.000;9.064;2023-11-21T08:06:48;3.73;;;2.37;;
73733;SDS011;62039;50.000;9.064;2023-11-21T08:09:18;2.87;;;2.53;;
73733;SDS011;62039;50.000;9.064;2023-11-21T08:11:45;2.87;;;2.63;;
73733;SDS011;62039;50.000;9.064;2023-11-21T08:14:12;2.47;;;2.27;;
73733;SDS011;62039;50.000;9.064;2023-11-21T08:16:39;3.53;;;2.80;;
73733;SDS011;62039;50.000;9.064;2023-11-21T08:19:06;3.60;;;2.40;;
73733;SDS011;62039;50.000;9.064;2023-11-21T08:21:33;3.57;;;2.90;;
73733;SDS011;62039;50.000;9.064;2023-11-21T08:24:00;2.90;;;2.70;;
73733;SDS011;62039;50.000;9.064;2023-11-21T08:26:29;2.80;;;2.60;;
73733;SDS011;62039;50.000;9.064;2023-11-21T08:28:56;2.87;;;2.67;;
73733;SDS011;62039;50.000;9.064;2023-11-21T08:31:23;3.03;;;2.73;;
73733;SDS011;62039;50.000;9.064;2023-11-21T08:33:51;2.77;;;2.57;;
73733;SDS011;62039;50.000;9.064;2023-11-21T08:36:18;2.70;;;2.40;;
73733;SDS011;62039;50.000;9.064;2023-11-21T08:38:45;3.17;;;2.93;;
73733;SDS011;62039;50.000;9.064;2023-11-21T08:41:12;2.93;;;2.73;;
73733;SDS011;62039;50.000;9.064;2023-11-21T08:43:41;2.50;;;2.30;;
73733;SDS011;62039;50.000;9.064;2023-11-21T08:46:08;2.50;;;2.30;;
73733;SDS011;62039;50.000;9.064;2023-11-21T08:48:36;3.07;;;2.60;;
73733;SDS011;62039;50.000;9.064;2023-11-21T08:51:03;3.07;;;2.80;;
73733;SDS011;62039;50.000;9.064;2023-11-21T08:53:31;2.60;;;2.40;;
73733;SDS011;62039;50.000;9.064;2023-11-21T08:55:58;2.20;;;2.00;;
73733;SDS011;62039;50.000;9.064;2023-11-21T08:58:25;2.40;;;2.17;;
73733;SDS011;62039;50.000;9.064;2023-11-21T09:00:54;3.03;;;2.73;;
73733;SDS011;62039;50.000;9.064;2023-11-21T09:03:21;2.70;;;2.50;;
73733;SDS011;62039;50.000;9.064;2023-11-21T09:05:49;3.47;;;2.67;;
73733;SDS011;62039;50.000;9.064;2023-11-21T09:08:16;3.17;;;2.50;;
73733;SDS011;62039;50.000;9.064;2023-11-21T09:10:43;2.57;;;2.37;;
73733;SDS011;62039;50.000;9.064;2023-11-21T09:13:09;3.50;;;2.27;;
73733;SDS011;62039;50.000;9.064;2023-11-21T09:15:36;2.30;;;2.10;;
73733;SDS011;62039;50.000;9.064;2023-11-21T09:18:06;1.77;;;1.67;;
73733;SDS011;62039;50.000;9.064;2023-11-21T09:20:33;2.57;;;2.20;;
73733;SDS011;62039;50.000;9.064;2023-11-21T09:23:00;3.27;;;2.03;;
73733;SDS011;62039;50.000;9.064;2023-11-21T09:25:27;2.30;;;2.10;;
73733;SDS011;62039;50.000;9.064;2023-11-21T09:27:54;2.13;;;1.87;;
73733;SDS011;62039;50.000;9.064;2023-11-21T09:30:21;2.20;;;2.00;;
73733;SDS011;62039;50.000;9.064;2023-11-21T09:32:48;2.20;;;2.00;;
73733;SDS011;62039;50.000;9.064;2023-11-21T09:35:17;2.17;;;1.90;;
73733;SDS011;62039;50.000;9.064;2023-11-21T09:37:44;1.90;;;1.70;;
73733;SDS011;62039;50.000;9.064;2023-11-21T09:40:14;2.10;;;1.80;;
73733;SDS011;62039;50.000;9.064;2023-11-21T09:42:43;2.27;;;1.60;;
73733;SDS011;62039;50.000;9.064;2023-11-21T09:45:17;1.60;;;1.40;;
73733;SDS011;62039;50.000;9.064;2023-11-21T09:47:47;1.60;;;1.47;;
73733;SDS011;62039;50.000;9.064;2023-11-21T09:50:14;2.63;;;1.63;;
73733;SDS011;62039;50.000;9.064;2023-11-21T09:52:48;1.47;;;1.23;;
73733;SDS011;62039;50.000;9.064;2023-11-21T09:55:20;1.73;;;1.50;;
73733;SDS011;62039;50.000;9.064;2023-11-21T09:57:48;2.30;;;1.50;;
73733;SDS011;62039;50.000;9.064;2023-11-21T10:00:15;2.50;;;1.33;;
73733;SDS011;62039;50.000;9.064;2023-11-21T10:02:42;1.67;;;1.50;;
73733;SDS011;62039;50.000;9.064;2023-11-21T10:05:10;2.30;;;1.27;;
73733;SDS011;62039;50.000;9.064;2023-11-21T10:07:40;1.60;;;1.30;;
73733;SDS011;62039;50.000;9.064;2023-11-21T10:10:08;2.37;;;1.30;;
73733;SDS011;62039;50.000;9.064;2023-11-21T10:12:35;1.37;;;1.27;;
73733;SDS011;62039;50.000;9.064;2023-11-21T10:15:03;1.73;;;1.30;;
73733;SDS011;62039;50.000;9.064;2023-11-21T10:17:34;1.93;;;1.47;;
73733;SDS011;62039;50.000;9.064;2023-11-21T10:20:03;2.00;;;1.30;;
73733;SDS011;62039;50.000;9.064;2023-11-21T10:22:32;1.80;;;1.23;;
73733;SDS011;62039;50.000;9.064;2023-11-21T10:25:02;2.90;;;1.33;;
73733;SDS011;62039;50.000;9.064;2023-11-21T10:27:30;2.07;;;1.50;;
73733;SDS011;62039;50.000;9.064;2023-11-21T10:29:57;1.80;;;1.40;;
73733;SDS011;62039;50.000;9.064;2023-11-21T10:32:27;1.90;;;1.70;;
73733;SDS011;62039;50.000;9.064;2023-11-21T10:34:58;2.83;;;1.70;;
73733;SDS011;62039;50.000;9.064;2023-11-21T10:37:25;2.57;;;1.67;;
73733;SDS011;62039;50.000;9.064;2023-11-21T10:39:55;1.70;;;1.60;;
73733;SDS011;62039;50.000;9.064;2023-11-21T10:42:26;2.77;;;1.70;;
73733;SDS011;62039;50.000;9.064;2023-11-21T10:44:54;2.53;;;1.50;;
73733;SDS011;62039;50.000;9.064;2023-11-21T10:47:22;1.63;;;1.50;;
73733;SDS011;62039;50.000;9.064;2023-11-21T10:49:49;1.70;;;1.50;;
73733;SDS011;62039;50.000;9.064;2023-11-21T10:52:16;4.10;;;2.30;;
73733;SDS011;62039;50.000;9.064;2023-11-21T10:54:45;2.37;;;1.90;;
73733;SDS011;62039;50.000;9.064;2023-11-21T10:57:13;2.70;;;2.07;;
73733;SDS011;62039;50.000;9.064;2023-11-21T10:59:47;2.27;;;2.03;;
73733;SDS011;62039;50.000;9.064;2023-11-21T11:02:18;3.63;;;2.03;;
73733;SDS011;62039;50.000;9.064;2023-11-21T11:04:49;2.03;;;1.83;;
73733;SDS011;62039;50.000;9.064;2023-11-21T11:07:18;3.33;;;2.07;;
73733;SDS011;62039;50.000;9.064;2023-11-21T11:09:47;2.30;;;2.10;;
73733;SDS011;62039;50.000;9.064;2023-11-21T11:12:14;4.30;;;2.67;;
73733;SDS011;62039;50.000;9.064;2023-11-21T11:14:42;2.10;;;1.80;;
73733;SDS011;62039;50.000;9.064;2023-11-21T11:17:12;2.27;;;2.03;;
73733;SDS011;62039;50.000;9.064;2023-11-21T11:19:40;2.43;;;1.83;;
73733;SDS011;62039;50.000;9.064;2023-11-21T11:22:08;2.23;;;1.90;;
73733;SDS011;62039;50.000;9.064;2023-11-21T11:25:03;5.50;;;2.63;;
73733;SDS011;62039;50.000;9.064;2023-11-21T11:27:44;1.77;;;1.50;;
73733;SDS011;62039;50.000;9.064;2023-11-21T11:30:21;2.80;;;1.87;;
73733;SDS011;62039;50.000;9.064;2023-11-21T11:33:04;2.77;;;1.80;;
73733;SDS011;62039;50.000;9.064;2023-11-21T11:35:40;2.57;;;1.70;;
73733;SDS011;62039;50.000;9.064;2023-11-21T11:38:12;3.03;;;1.90;;
73733;SDS011;62039;50.000;9.064;2023-11-21T11:40:39;2.20;;;1.70;;
73733;SDS011;62039;50.000;9.064;2023-11-21T11:43:07;3.47;;;1.70;;
73733;SDS011;62039;50.000;9.064;2023-11-21T11:45:34;2.00;;;1.33;;
73733;SDS011;62039;50.000;9.064;2023-11-21T11:48:05;3.57;;;2.10;;
73733;SDS011;62039;50.000;9.064;2023-11-21T11:50:34;3.47;;;1.53;;
73733;SDS011;62039;50.000;9.064;2023-11-21T11:53:14;3.03;;;1.50;;
73733;SDS011;62039;50.000;9.064;2023-11-21T11:55:42;3.63;;;1.50;;
73733;SDS011;62039;50.000;9.064;2023-11-21T11:58:10;2.20;;;1.50;;
73733;SDS011;62039;50.000;9.064;2023-11-21T12:00:37;2.47;;;1.73;;
73733;SDS011;62039;50.000;9.064;2023-11-21T12:03:07;3.33;;;1.40;;
73733;SDS011;62039;50.000;9.064;2023-11-21T12:05:35;2.10;;;1.17;;
73733;SDS011;62039;50.000;9.064;2023-11-21T12:08:03;1.80;;;1.37;;
73733;SDS011;62039;50.000;9.064;2023-11-21T12:10:31;2.23;;;1.53;;
73733;SDS011;62039;50.000;9.064;2023-11-21T12:13:00;2.20;;;1.23;;
73733;SDS011;62039;50.000;9.064;2023-11-21T12:15:28;2.17;;;1.50;;
73733;SDS011;62039;50.000;9.064;2023-11-21T12:17:55;3.67;;;1.70;;
73733;SDS011;62039;50.000;9.064;2023-11-21T12:20:25;1.97;;;1.77;;
73733;SDS011;62039;50.000;9.064;2023-11-21T12:22:53;2.43;;;1.70;;
73733;SDS011;62039;50.000;9.064;2023-11-21T12:25:21;2.50;;;1.83;;
73733;SDS011;62039;50.000;9.064;2023-11-21T12:27:50;2.27;;;1.80;;
73733;SDS011;62039;50.000;9.064;2023-11-21T12:30:18;1.73;;;1.63;;
73733;SDS011;62039;50.000;9.064;2023-11-21T12:32:48;2.40;;;2.07;;
73733;SDS011;62039;50.000;9.064;2023-11-21T12:35:16;2.83;;;1.80;;
73733;SDS011;62039;50.000;9.064;2023-11-21T12:37:47;3.63;;;1.70;;
73733;SDS011;62039;50.000;9.064;2023-11-21T12:40:15;2.63;;;1.40;;
73733;SDS011;62039;50.000;9.064;2023-11-21T12:42:42;3.83;;;1.77;;
73733;SDS011;62039;50.000;9.064;2023-11-21T12:45:18;2.73;;;1.63;;
73733;SDS011;62039;50.000;9.064;2023-11-21T12:47:47;2.97;;;1.60;;
73733;SDS011;62039;50.000;9.064;2023-11-21T12:50:14;2.73;;;1.87;;
73733;SDS011;62039;50.000;9.064;2023-11-21T12:52:42;1.87;;;1.53;;
73733;SDS011;62039;50.000;9.064;2023-11-21T12:55:15;4.20;;;1.80;;
73733;SDS011;62039;50.000;9.064;2023-11-21T12:57:43;3.00;;;1.80;;
73733;SDS011;62039;50.000;9.064;2023-11-21T13:00:12;2.20;;;1.53;;
73733;SDS011;62039;50.000;9.064;2023-11-21T13:02:41;2.70;;;1.93;;
73733;SDS011;62039;50.000;9.064;2023-11-21T13:05:08;3.93;;;2.37;;
73733;SDS011;62039;50.000;9.064;2023-11-21T13:07:40;3.63;;;2.10;;
73733;SDS011;62039;50.000;9.064;2023-11-21T13:10:08;2.80;;;1.87;;
73733;SDS011;62039;50.000;9.064;2023-11-21T13:12:38;2.10;;;1.67;;
73733;SDS011;62039;50.000;9.064;2023-11-21T13:15:10;5.17;;;2.00;;
73733;SDS011;62039;50.000;9.064;2023-11-21T13:17:40;3.17;;;1.63;;
73733;SDS011;62039;50.000;9.064;2023-11-21T13:20:07;2.93;;;1.83;;
73733;SDS011;62039;50.000;9.064;2023-11-21T13:22:35;3.80;;;2.13;;
73733;SDS011;62039;50.000;9.064;2023-11-21T13:25:02;3.37;;;1.93;;
73733;SDS011;62039;50.000;9.064;2023-11-21T13:27:29;6.90;;;3.20;;
73733;SDS011;62039;50.000;9.064;2023-11-21T13:29:58;5.03;;;3.00;;
73733;SDS011;62039;50.000;9.064;2023-11-21T13:32:25;6.33;;;3.50;;
73733;SDS011;62039;50.000;9.064;2023-11-21T13:34:52;4.00;;;2.90;;
73733;SDS011;62039;50.000;9.064;2023-11-21T13:37:19;4.07;;;2.47;;
73733;SDS011;62039;50.000;9.064;2023-11-21T13:39:46;3.27;;;2.20;;
73733;SDS011;62039;50.000;9.064;2023-11-21T13:42:14;3.47;;;2.30;;
73733;SDS011;62039;50.000;9.064;2023-11-21T13:44:41;4.70;;;2.17;;
73733;SDS011;62039;50.000;9.064;2023-11-21T13:47:11;4.00;;;2.00;;
73733;SDS011;62039;50.000;9.064;2023-11-21T13:49:38;3.20;;;2.20;;
73733;SDS011;62039;50.000;9.064;2023-11-21T13:52:05;2.00;;;1.60;;
73733;SDS011;62039;50.000;9.064;2023-11-21T13:54:32;4.27;;;2.33;;
73733;SDS011;62039;50.000;9.064;2023-11-21T13:56:59;2.20;;;1.93;;
73733;SDS011;62039;50.000;9.064;2023-11-21T13:59:27;2.57;;;2.10;;
73733;SDS011;62039;50.000;9.064;2023-11-21T14:01:54;4.77;;;2.40;;
73733;SDS011;62039;50.000;9.064;2023-11-21T14:04:26;4.93;;;2.30;;
73733;SDS011;62039;50.000;9.064;2023-11-21T14:06:53;2.63;;;2.00;;
73733;SDS011;62039;50.000;9.064;2023-11-21T14:09:20;3.07;;;2.00;;
73733;SDS011;62039;50.000;9.064;2023-11-21T14:11:49;3.30;;;2.00;;
73733;SDS011;62039;50.000;9.064;2023-11-21T14:14:16;3.03;;;1.77;;
73733;SDS011;62039;50.000;9.064;2023-11-21T14:16:43;4.03;;;2.03;;
73733;SDS011;62039;50.000;9.064;2023-11-21T14:19:10;3.03;;;2.10;;
73733;SDS011;62039;50.000;9.064;2023-11-21T14:21:40;2.77;;;1.90;;
73733;SDS011;62039;50.000;9.064;2023-11-21T14:24:07;4.63;;;1.90;;
73733;SDS011;62039;50.000;9.064;2023-11-21T14:26:34;2.77;;;1.87;;
73733;SDS011;62039;50.000;9.064;2023-11-21T14:29:01;3.93;;;1.90;;
73733;SDS011;62039;50.000;9.064;2023-11-21T14:31:28;3.17;;;1.90;;
73733;SDS011;62039;50.000;9.064;2023-11-21T14:33:54;3.23;;;2.00;;
73733;SDS011;62039;50.000;9.064;2023-11-21T14:36:23;2.10;;;1.90;;
73733;SDS011;62039;50.000;9.064;2023-11-21T14:38:53;3.30;;;2.07;;
73733;SDS011;62039;50.000;9.064;2023-11-21T14:41:19;3.00;;;2.00;;
73733;SDS011;62039;50.000;9.064;2023-11-21T14:43:46;3.83;;;2.00;;
73733;SDS011;62039;50.000;9.064;2023-11-21T14:46:13;2.90;;;2.07;;
73733;SDS011;62039;50.000;9.064;2023-11-21T14:48:40;2.60;;;2.00;;
73733;SDS011;62039;50.000;9.064;2023-11-21T14:51:07;5.43;;;2.20;;
73733;SDS011;62039;50.000;9.064;2023-11-21T14:53:35;2.30;;;2.07;;